Time;durP1;ratioP1;P1;durP2;ratioP2;P2;SDS_P1;SDS_P2;PMS_P1;PMS_P2;Temp;Humidity;BMP_temperature;BMP_pressure;BME280_temperature;BME280_humidity;BME280_pressure;Samples;Min_cycle;Max_cycle;Signal;HPM_P1;HPM_P2
2023/12/10 00:01:51;;;;;;;13.30;6.60;;;;;;;1.66;82.01;99496.52;78293;1301;3052171;-61
2023/12/10 00:04:18;;;;;;;11.40;6.50;;;;;;;1.54;82.55;99498.00;79470;1298;3013053;-62
2023/12/10 00:06:45;;;;;;;10.00;6.30;;;;;;;1.51;82.91;99497.20;79324;1299;3011566;-61
2023/12/10 00:09:13;;;;;;;9.40;6.20;;;;;;;1.48;83.03;99497.61;78042;1301;3026355;-62
2023/12/10 00:11:40;;;;;;;11.50;6.40;;;;;;;1.49;83.22;99495.19;79351;1295;3013031;-62
2023/12/10 00:14:07;;;;;;;9.10;5.00;;;;;;;1.39;83.42;99488.51;79240;1301;3011535;-63
2023/12/10 00:16:35;;;;;;;8.40;4.50;;;;;;;1.92;82.67;99492.09;78089;1301;3029217;-63
2023/12/10 00:19:01;;;;;;;8.40;4.60;;;;;;;2.57;80.34;99487.29;79509;1295;3021050;-62
2023/12/10 00:21:28;;;;;;;8.30;5.00;;;;;;;2.60;79.44;99484.10;79319;1298;3011462;-62
2023/12/10 00:23:56;;;;;;;7.50;4.80;;;;;;;2.66;79.75;99485.30;78031;1301;3028933;-64
2023/12/10 00:26:23;;;;;;;8.70;5.50;;;;;;;2.39;79.50;99481.02;79280;1301;3013047;-60
2023/12/10 00:28:50;;;;;;;9.80;5.00;;;;;;;2.16;80.17;99479.21;79257;1299;3011698;-62
2023/12/10 00:31:18;;;;;;;11.70;4.90;;;;;;;2.05;80.70;99483.14;78082;1301;3028430;-61
2023/12/10 00:33:45;;;;;;;9.10;5.10;;;;;;;1.84;81.18;99486.23;79289;1298;3013049;-60
2023/12/10 00:36:12;;;;;;;9.40;6.10;;;;;;;1.69;81.72;99486.43;79375;1299;3012999;-63
2023/12/10 00:38:40;;;;;;;8.70;5.10;;;;;;;1.60;82.35;99488.88;78140;1295;3028798;-61
2023/12/10 00:41:09;;;;;;;9.90;5.70;;;;;;;1.45;82.69;99489.77;79249;1301;3018745;-62
2023/12/10 00:43:40;;;;;;;12.20;6.50;;;;;;;1.39;83.66;99484.52;78790;1300;3012924;-62
2023/12/10 00:46:06;;;;;;;11.60;6.50;;;;;;;1.30;84.15;99485.95;79379;1301;3013597;-63
2023/12/10 00:48:34;;;;;;;11.90;5.70;;;;;;;1.36;84.56;99481.33;79291;1295;3012901;-64
2023/12/10 00:51:02;;;;;;;11.80;5.40;;;;;;;1.84;83.55;99474.81;78106;1301;3050468;-63
2023/12/10 00:53:29;;;;;;;13.40;6.40;;;;;;;2.35;81.16;99473.17;79285;1298;3013069;-62
2023/12/10 00:55:56;;;;;;;11.60;6.00;;;;;;;2.35;80.46;99477.16;79334;1301;3013132;-63
2023/12/10 00:58:24;;;;;;;10.60;6.20;;;;;;;2.40;80.79;99473.23;78186;1301;3026256;-64
2023/12/10 01:00:51;;;;;;;12.10;6.50;;;;;;;2.13;81.07;99471.69;79584;1298;3011650;-60
2023/12/10 01:03:18;;;;;;;12.50;6.60;;;;;;;1.97;81.87;99469.50;79229;1300;3011649;-60
2023/12/10 01:05:46;;;;;;;14.20;6.20;;;;;;;1.96;82.26;99464.88;78016;1295;3051497;-61
2023/12/10 01:08:14;;;;;;;11.10;6.30;;;;;;;1.86;82.36;99467.73;79326;1295;3013814;-61
2023/12/10 01:10:41;;;;;;;12.10;6.40;;;;;;;1.68;82.81;99469.16;79238;1295;3012836;-62
2023/12/10 01:13:09;;;;;;;10.50;6.20;;;;;;;1.52;83.38;99473.52;78218;1301;3049700;-63
2023/12/10 01:15:36;;;;;;;9.40;5.60;;;;;;;1.60;83.61;99475.77;79416;1300;3013489;-62
2023/12/10 01:18:03;;;;;;;12.70;5.50;;;;;;;1.60;83.42;99476.13;79361;1299;3013923;-63
2023/12/10 01:20:32;;;;;;;10.70;5.20;;;;;;;1.56;83.28;99476.89;78106;1295;3051359;-62
2023/12/10 01:22:59;;;;;;;10.00;5.80;;;;;;;2.06;82.54;99473.06;79506;1298;3013622;-64
2023/12/10 01:25:26;;;;;;;8.80;5.40;;;;;;;2.61;80.47;99468.69;79232;1295;3012182;-61
2023/12/10 01:27:54;;;;;;;9.50;5.20;;;;;;;2.67;79.85;99466.95;78080;1300;3050016;-62
2023/12/10 01:30:23;;;;;;;15.50;6.20;;;;;;;2.57;79.68;99466.70;79465;1300;3013546;-63
2023/12/10 01:32:57;;;;;;;10.40;6.30;;;;;;;2.38;80.43;99466.02;79410;1295;3011605;-62
2023/12/10 01:35:26;;;;;;;8.90;5.00;;;;;;;2.13;80.96;99461.84;78055;1300;3052085;-62
2023/12/10 01:37:53;;;;;;;9.80;5.70;;;;;;;1.97;81.66;99457.40;79386;1296;3014897;-65
2023/12/10 01:40:21;;;;;;;9.40;5.70;;;;;;;1.80;82.14;99462.86;79384;1295;3011533;-64
2023/12/10 01:42:49;;;;;;;11.10;6.40;;;;;;;1.52;83.08;99461.78;78165;1301;3049612;-62
2023/12/10 01:45:19;;;;;;;11.50;6.90;;;;;;;1.45;83.94;99466.27;79500;1297;3013244;-60
2023/12/10 01:47:51;;;;;;;15.50;6.70;;;;;;;1.43;84.58;99462.19;78822;1295;3011930;-62
2023/12/10 01:50:18;;;;;;;11.70;7.10;;;;;;;1.38;84.79;99459.20;79324;1301;3013334;-63
2023/12/10 01:52:50;;;;;;;14.20;6.70;;;;;;;1.29;85.17;99460.08;78100;1301;3026519;-64
2023/12/10 01:55:16;;;;;;;8.30;5.30;;;;;;;1.85;84.24;99456.16;79325;1300;3013052;-63
2023/12/10 01:57:45;;;;;;;11.80;6.10;;;;;;;2.43;81.97;99452.77;78738;1295;3012699;-64
2023/12/10 02:00:13;;;;;;;13.10;6.50;;;;;;;2.54;81.23;99455.73;79414;1295;3013718;-62
2023/12/10 02:02:40;;;;;;;12.70;6.30;;;;;;;2.46;81.15;99455.24;79494;1301;3012958;-64
2023/12/10 02:05:08;;;;;;;12.90;7.00;;;;;;;2.25;81.44;99455.99;78037;1301;3050489;-62
2023/12/10 02:07:35;;;;;;;11.70;7.00;;;;;;;2.09;82.08;99453.64;79334;1298;3013656;-62
2023/12/10 02:10:05;;;;;;;14.60;7.20;;;;;;;2.01;82.70;99455.23;79305;1299;3012997;-62
2023/12/10 02:12:34;;;;;;;12.20;7.00;;;;;;;1.76;82.79;99453.61;78248;1295;3048896;-62
2023/12/10 02:15:18;;;;;;;14.70;7.20;;;;;;;1.55;83.81;99455.86;79402;1301;3013772;-61
2023/12/10 02:17:46;;;;;;;19.70;7.50;;;;;;;1.41;84.35;99460.15;78202;1300;3053102;-63
2023/12/10 02:20:14;;;;;;;15.80;7.20;;;;;;;1.33;85.03;99462.40;79314;1301;3013313;-61
2023/12/10 02:23:04;;;;;;;13.50;5.70;;;;;;;1.27;85.66;99462.89;79325;1296;3011711;-63
2023/12/10 02:25:32;;;;;;;13.20;6.10;;;;;;;1.95;84.59;99461.27;78077;1296;3057383;-63
2023/12/10 02:28:00;;;;;;;12.70;7.20;;;;;;;2.46;82.36;99461.48;79412;1295;3013380;-63
2023/12/10 02:30:27;;;;;;;12.00;6.30;;;;;;;2.46;81.26;99458.17;79479;1295;3011625;-63
2023/12/10 02:32:55;;;;;;;11.20;7.00;;;;;;;2.34;81.45;99460.25;78169;1298;3052004;-62
2023/12/10 02:35:22;;;;;;;12.60;6.70;;;;;;;2.20;81.75;99461.31;79364;1299;3013309;-61
2023/12/10 02:37:50;;;;;;;13.90;7.30;;;;;;;1.97;82.41;99461.05;79362;1301;3011736;-61
2023/12/10 02:40:18;;;;;;;15.90;7.40;;;;;;;1.84;83.04;99459.64;78264;1300;3056594;-62
2023/12/10 02:42:45;;;;;;;13.70;7.60;;;;;;;1.60;83.80;99456.23;79276;1295;3012774;-62
2023/12/10 02:45:13;;;;;;;13.60;8.10;;;;;;;1.57;83.97;99463.06;79352;1295;3012888;-65
2023/12/10 02:47:42;;;;;;;13.70;7.60;;;;;;;1.49;84.48;99464.10;78065;1301;3051500;-61
2023/12/10 02:50:09;;;;;;;14.70;7.30;;;;;;;1.42;85.00;99464.10;79440;1300;3013411;-63
2023/12/10 02:52:36;;;;;;;14.00;6.90;;;;;;;1.28;85.43;99464.59;79310;1295;3011755;-63
2023/12/10 02:55:06;;;;;;;11.00;6.10;;;;;;;1.69;84.78;99463.96;78117;1301;3056803;-63
2023/12/10 02:57:33;;;;;;;11.00;5.90;;;;;;;2.30;82.87;99467.79;79493;1299;3011572;-62
2023/12/10 03:00:00;;;;;;;14.20;7.00;;;;;;;2.30;81.89;99471.06;79384;1295;3012585;-64
2023/12/10 03:02:28;;;;;;;10.20;6.50;;;;;;;2.37;82.37;99470.55;78143;1300;3052464;-61
2023/12/10 03:04:55;;;;;;;10.50;6.20;;;;;;;2.23;82.22;99471.77;79349;1301;3014635;-60
2023/12/10 03:07:22;;;;;;;14.00;7.20;;;;;;;2.18;82.69;99468.95;79382;1300;3011635;-60
2023/12/10 03:09:51;;;;;;;14.30;7.00;;;;;;;1.92;82.77;99468.09;78247;1299;3056911;-61
2023/12/10 03:12:18;;;;;;;12.40;7.30;;;;;;;1.71;83.64;99465.98;79569;1297;3013436;-61
2023/12/10 03:14:44;;;;;;;16.60;8.30;;;;;;;1.53;84.19;99470.91;79375;1302;3011683;-60
2023/12/10 03:17:12;;;;;;;13.00;7.10;;;;;;;1.55;84.77;99471.05;78055;1301;3051964;-62
2023/12/10 03:19:40;;;;;;;15.90;7.50;;;;;;;1.50;84.59;99474.44;79456;1301;3013143;-63
2023/12/10 03:22:06;;;;;;;14.30;6.80;;;;;;;1.37;85.42;99473.36;79289;1299;3013016;-62
2023/12/10 03:24:34;;;;;;;13.20;6.20;;;;;;;1.97;84.70;99477.09;78127;1301;3026145;-63
2023/12/10 03:27:01;;;;;;;12.00;6.60;;;;;;;2.51;82.20;99476.92;79358;1296;3012689;-63
2023/12/10 03:29:28;;;;;;;10.30;5.80;;;;;;;2.64;81.45;99475.34;79311;1300;3011589;-63
2023/12/10 03:31:56;;;;;;;11.30;6.00;;;;;;;2.58;81.25;99470.31;78101;1299;3025463;-62
2023/12/10 03:34:25;;;;;;;11.10;6.50;;;;;;;2.38;81.54;99465.67;79321;1301;3021348;-61
2023/12/10 03:36:51;;;;;;;12.30;6.50;;;;;;;2.23;81.95;99465.23;79467;1295;3011707;-62
2023/12/10 03:39:20;;;;;;;10.70;6.90;;;;;;;2.18;82.32;99464.64;78172;1301;3055800;-61
2023/12/10 03:41:46;;;;;;;12.80;7.10;;;;;;;1.98;82.61;99467.41;79246;1301;3013727;-63
2023/12/10 03:44:13;;;;;;;19.50;7.60;;;;;;;1.67;83.22;99472.32;79325;1298;3011799;-61
2023/12/10 03:46:41;;;;;;;15.40;7.70;;;;;;;1.56;84.06;99479.83;78040;1298;3028282;-63
2023/12/10 03:49:08;;;;;;;13.10;7.90;;;;;;;1.45;84.88;99481.48;79411;1298;3012791;-62
2023/12/10 03:51:34;;;;;;;12.80;6.40;;;;;;;1.43;85.20;99485.14;79437;1301;3013225;-64
2023/12/10 03:54:03;;;;;;;11.90;6.60;;;;;;;1.90;84.27;99484.68;78300;1301;3026273;-62
2023/12/10 03:56:31;;;;;;;10.30;6.00;;;;;;;2.39;82.13;99484.49;79339;1295;3013066;-62
2023/12/10 03:58:58;;;;;;;12.80;6.70;;;;;;;2.38;81.30;99487.80;79320;1301;3011682;-64
2023/12/10 04:01:27;;;;;;;11.40;6.00;;;;;;;2.41;82.11;99488.42;78088;1300;3052225;-62
2023/12/10 04:03:53;;;;;;;12.60;7.00;;;;;;;2.22;82.23;99488.23;79367;1301;3013395;-61
2023/12/10 04:06:20;;;;;;;14.90;8.10;;;;;;;1.93;82.87;99483.07;79465;1299;3011889;-63
2023/12/10 04:08:48;;;;;;;15.00;7.40;;;;;;;1.70;83.97;99484.33;78214;1295;3056087;-62
2023/12/10 04:11:23;;;;;;;17.20;7.40;;;;;;;1.65;84.47;99482.73;79322;1301;3013849;-63
2023/12/10 04:13:51;;;;;;;14.60;7.80;;;;;;;1.48;84.83;99481.56;78189;1301;3051087;-62
2023/12/10 04:16:29;;;;;;;15.00;7.90;;;;;;;1.29;85.48;99485.79;79301;1301;3013604;-62
2023/12/10 04:18:57;;;;;;;15.20;8.20;;;;;;;1.29;86.07;99488.55;78090;1301;3068783;-62
2023/12/10 04:21:24;;;;;;;17.30;7.80;;;;;;;1.21;86.61;99487.86;76902;1295;6746970;-62
2023/12/10 04:23:50;;;;;;;13.40;7.20;;;;;;;1.77;86.01;99491.58;79371;1301;3011919;-64
2023/12/10 04:26:19;;;;;;;16.10;6.90;;;;;;;2.45;83.36;99494.70;78064;1300;3027155;-62
2023/12/10 04:28:46;;;;;;;15.00;8.30;;;;;;;2.62;81.93;99494.59;79302;1298;3013849;-61
2023/12/10 04:31:13;;;;;;;12.20;7.10;;;;;;;2.43;81.77;99498.39;79363;1299;3012897;-62
2023/12/10 04:33:44;;;;;;;14.10;7.50;;;;;;;2.06;81.93;99501.06;78230;1308;3069299;-61
2023/12/10 04:36:11;;;;;;;11.80;6.90;;;;;;;1.76;83.11;99500.95;79441;1296;3013550;-62
2023/12/10 04:38:41;;;;;;;14.20;7.40;;;;;;;1.46;84.46;99505.45;78815;1296;3011760;-62
2023/12/10 04:41:08;;;;;;;11.50;7.40;;;;;;;1.23;85.59;99506.30;79491;1301;3015464;-62
2023/12/10 04:43:35;;;;;;;14.90;7.90;;;;;;;1.11;86.39;99507.06;79265;1299;3011837;-61
2023/12/10 04:46:03;;;;;;;16.70;7.70;;;;;;;1.12;87.12;99506.88;78101;1300;3051998;-61
2023/12/10 04:48:30;;;;;;;13.90;7.20;;;;;;;1.21;87.46;99505.83;79574;1298;3013831;-61
2023/12/10 04:50:57;;;;;;;13.00;6.50;;;;;;;1.53;86.13;99507.68;79522;1297;3011913;-61
2023/12/10 04:53:25;;;;;;;12.70;6.70;;;;;;;2.18;84.29;99508.52;78187;1298;3056500;-62
2023/12/10 04:55:52;;;;;;;11.40;6.40;;;;;;;2.34;82.81;99509.17;79524;1301;3020490;-61
2023/12/10 04:58:19;;;;;;;13.40;7.60;;;;;;;2.31;82.63;99504.23;79471;1294;3011946;-65
2023/12/10 05:00:47;;;;;;;10.70;6.90;;;;;;;2.18;82.98;99506.13;78355;1299;3051655;-63
2023/12/10 05:03:14;;;;;;;13.10;7.20;;;;;;;1.98;82.58;99508.34;79669;1298;3020623;-63
2023/12/10 05:05:41;;;;;;;12.50;7.90;;;;;;;1.83;83.43;99507.86;79511;1297;3012576;-62
2023/12/10 05:08:09;;;;;;;13.40;7.40;;;;;;;1.59;83.89;99507.56;78259;1298;3028492;-61
2023/12/10 05:10:36;;;;;;;13.00;7.20;;;;;;;1.40;84.60;99507.28;79463;1296;3018805;-62
2023/12/10 05:13:03;;;;;;;17.60;7.80;;;;;;;1.22;85.71;99511.83;79388;1295;3012241;-62
2023/12/10 05:15:31;;;;;;;14.30;7.00;;;;;;;1.06;86.37;99513.55;78252;1299;3026287;-61
2023/12/10 05:18:02;;;;;;;9.90;5.70;;;;;;;1.51;86.08;99513.25;79591;1295;3013060;-64
2023/12/10 05:20:30;;;;;;;14.40;6.80;;;;;;;2.03;83.78;99516.17;78174;1298;3053403;-61
2023/12/10 05:23:00;;;;;;;11.90;6.30;;;;;;;2.22;83.50;99530.92;79368;1297;3021287;-64
2023/12/10 05:25:32;;;;;;;12.50;7.50;;;;;;;2.21;83.02;99538.20;78981;1295;3012856;-63
2023/12/10 05:27:59;;;;;;;14.30;7.50;;;;;;;2.14;83.23;99544.08;79454;1298;3011619;-61
2023/12/10 05:30:28;;;;;;;15.90;7.80;;;;;;;1.87;83.49;99549.56;79102;1299;3013681;-64
2023/12/10 05:32:55;;;;;;;16.80;7.90;;;;;;;1.84;83.91;99544.45;79543;1295;3019097;-63
2023/12/10 05:35:22;;;;;;;14.10;8.00;;;;;;;1.75;84.00;99543.45;79451;1295;3012301;-62
2023/12/10 05:37:50;;;;;;;14.20;7.60;;;;;;;1.62;83.90;99543.76;78265;1300;3028346;-61
2023/12/10 05:40:16;;;;;;;19.10;8.30;;;;;;;1.46;84.45;99546.71;79557;1298;3018614;-62
2023/12/10 05:42:43;;;;;;;21.80;8.90;;;;;;;1.33;84.98;99549.39;79425;1301;3012968;-62
2023/12/10 05:45:11;;;;;;;12.10;7.30;;;;;;;1.29;85.60;99552.92;78244;1295;3028052;-63
2023/12/10 05:47:39;;;;;;;13.90;6.90;;;;;;;1.71;84.83;99558.23;79611;1294;3012683;-62
2023/12/10 05:50:06;;;;;;;13.60;7.40;;;;;;;2.35;82.87;99557.02;79442;1298;3012422;-63
2023/12/10 05:52:34;;;;;;;14.30;7.20;;;;;;;2.56;81.99;99562.73;78231;1295;3051481;-63
2023/12/10 05:55:01;;;;;;;12.90;6.60;;;;;;;2.44;81.67;99564.05;79504;1301;3013167;-61
2023/12/10 05:57:28;;;;;;;17.90;7.90;;;;;;;2.34;81.92;99565.69;79372;1298;3011727;-62
2023/12/10 05:59:56;;;;;;;12.70;7.10;;;;;;;2.16;82.04;99567.35;78225;1298;3026733;-66
2023/12/10 06:02:23;;;;;;;13.50;7.00;;;;;;;1.96;82.50;99570.08;79542;1298;3013011;-63
2023/12/10 06:04:50;;;;;;;15.40;8.40;;;;;;;1.93;83.04;99574.80;79646;1295;3011632;-63
2023/12/10 06:07:18;;;;;;;14.60;7.90;;;;;;;1.83;83.12;99577.30;78284;1297;3026737;-60
2023/12/10 06:09:45;;;;;;;14.90;8.30;;;;;;;1.76;83.28;99578.84;79516;1294;3012951;-60
2023/12/10 06:12:12;;;;;;;13.40;8.10;;;;;;;1.71;83.42;99581.00;79447;1299;3011402;-63
2023/12/10 06:14:40;;;;;;;14.30;8.20;;;;;;;1.61;83.60;99581.40;78261;1298;3049582;-60
2023/12/10 06:17:09;;;;;;;17.30;8.60;;;;;;;1.51;84.07;99589.73;79570;1295;3013740;-62
2023/12/10 06:19:36;;;;;;;12.90;7.30;;;;;;;1.40;84.77;99591.54;79575;1296;3013540;-62
2023/12/10 06:22:04;;;;;;;13.30;7.40;;;;;;;1.77;84.03;99595.89;78141;1296;3051677;-63
2023/12/10 06:24:31;;;;;;;14.30;7.60;;;;;;;2.31;82.38;99598.44;79436;1298;3013342;-62
2023/12/10 06:26:58;;;;;;;14.70;7.50;;;;;;;2.66;81.89;99597.74;79423;1301;3011601;-62
2023/12/10 06:29:26;;;;;;;15.30;7.40;;;;;;;2.58;80.97;99598.13;78442;1298;3025953;-65
2023/12/10 06:31:53;;;;;;;13.70;7.70;;;;;;;2.35;81.09;99602.32;79594;1298;3013404;-62
2023/12/10 06:34:20;;;;;;;12.80;7.40;;;;;;;2.20;81.51;99601.15;79516;1297;3013262;-63
2023/12/10 06:36:48;;;;;;;11.40;6.90;;;;;;;2.08;81.75;99600.73;78328;1298;3026876;-62
2023/12/10 06:39:16;;;;;;;14.20;8.30;;;;;;;1.86;81.85;99597.61;79471;1298;3013137;-62
2023/12/10 06:41:43;;;;;;;15.20;8.10;;;;;;;1.67;82.61;99600.97;79485;1298;3011577;-64
2023/12/10 06:44:14;;;;;;;16.40;8.30;;;;;;;1.63;83.41;99601.91;78196;1297;3049710;-62
2023/12/10 06:46:41;;;;;;;17.10;8.20;;;;;;;1.51;83.78;99602.85;79450;1298;3011440;-62
2023/12/10 06:49:09;;;;;;;15.70;8.80;;;;;;;1.31;84.30;99602.42;78271;1298;3028205;-59
2023/12/10 06:51:36;;;;;;;18.40;8.60;;;;;;;1.24;84.78;99602.73;79570;1295;3018667;-61
2023/12/10 06:54:03;;;;;;;16.10;7.20;;;;;;;1.32;85.23;99600.66;79376;1297;3011388;-61
2023/12/10 06:56:33;;;;;;;13.10;7.30;;;;;;;1.86;83.83;99601.76;78397;1293;3028333;-63
2023/12/10 06:59:00;;;;;;;12.30;6.70;;;;;;;2.28;81.35;99610.25;79690;1295;3013103;-61
2023/12/10 07:01:26;;;;;;;12.50;7.10;;;;;;;2.47;80.75;99613.60;79583;1295;3011722;-62
2023/12/10 07:03:55;;;;;;;12.00;7.30;;;;;;;2.33;80.61;99614.63;78328;1295;3053123;-63
2023/12/10 07:06:21;;;;;;;14.70;7.70;;;;;;;2.02;81.06;99615.54;79493;1295;3018886;-61
2023/12/10 07:08:48;;;;;;;13.50;7.80;;;;;;;1.79;82.12;99616.25;79569;1298;3011624;-63
2023/12/10 07:11:16;;;;;;;13.70;7.80;;;;;;;1.63;82.86;99615.72;78274;1297;3025912;-62
2023/12/10 07:13:43;;;;;;;15.10;7.60;;;;;;;1.44;83.10;99616.30;79498;1296;3013394;-62
2023/12/10 07:16:11;;;;;;;17.80;9.00;;;;;;;1.38;83.79;99621.09;79423;1296;3011641;-63
2023/12/10 07:18:39;;;;;;;14.70;7.20;;;;;;;1.36;84.32;99630.27;78215;1298;3050842;-63
2023/12/10 07:21:06;;;;;;;16.70;8.40;;;;;;;1.38;84.47;99638.19;79529;1298;3013110;-62
2023/12/10 07:23:35;;;;;;;19.70;9.80;;;;;;;1.20;84.54;99643.03;79535;1296;3012810;-63
2023/12/10 07:26:04;;;;;;;15.00;7.40;;;;;;;1.15;85.16;99643.63;78412;1298;3049549;-62
2023/12/10 07:28:31;;;;;;;13.90;7.10;;;;;;;1.61;84.26;99653.41;79571;1295;3014379;-61
2023/12/10 07:30:58;;;;;;;13.20;6.50;;;;;;;2.34;82.44;99651.96;79483;1298;3013165;-63
2023/12/10 07:33:26;;;;;;;12.00;7.00;;;;;;;2.60;81.30;99654.45;78213;1298;3052459;-62
2023/12/10 07:35:52;;;;;;;13.70;6.60;;;;;;;2.48;80.44;99659.41;79551;1302;3013186;-62
2023/12/10 07:38:19;;;;;;;13.10;7.70;;;;;;;2.23;80.48;99660.68;79538;1298;3011728;-61
2023/12/10 07:40:47;;;;;;;13.20;7.70;;;;;;;1.94;81.16;99660.84;78218;1299;3028926;-62
2023/12/10 07:43:14;;;;;;;12.60;8.50;;;;;;;1.88;82.11;99663.39;79496;1294;3012938;-63
2023/12/10 07:45:41;;;;;;;16.60;9.10;;;;;;;1.78;82.46;99662.56;79621;1298;3013323;-60
2023/12/10 07:48:09;;;;;;;15.00;8.30;;;;;;;1.71;82.97;99667.20;78317;1298;3028791;-64
2023/12/10 07:50:36;;;;;;;16.30;9.80;;;;;;;1.66;83.03;99674.38;79515;1298;3013106;-64
2023/12/10 07:53:02;;;;;;;17.60;8.50;;;;;;;1.49;83.34;99677.48;79401;1298;3013137;-61
2023/12/10 07:55:31;;;;;;;18.30;9.30;;;;;;;1.46;83.65;99679.95;78251;1297;3027555;-64
2023/12/10 07:57:59;;;;;;;18.80;10.10;;;;;;;1.45;83.80;99678.61;79518;1298;3013853;-62
2023/12/10 08:00:25;;;;;;;12.90;7.20;;;;;;;1.30;84.03;99681.31;79375;1296;3011868;-63
2023/12/10 08:02:53;;;;;;;15.90;7.90;;;;;;;1.91;83.47;99677.45;78197;1300;3051639;-63
2023/12/10 08:05:21;;;;;;;14.80;7.70;;;;;;;2.52;80.64;99678.33;79547;1298;3020613;-64
2023/12/10 08:07:48;;;;;;;14.60;8.10;;;;;;;2.61;79.64;99678.45;79544;1298;3011665;-62
2023/12/10 08:10:17;;;;;;;14.90;8.10;;;;;;;2.40;79.66;99677.05;78471;1295;3048378;-62
2023/12/10 08:12:44;;;;;;;17.20;8.80;;;;;;;2.29;80.19;99678.02;79606;1294;3011745;-64
2023/12/10 08:15:11;;;;;;;20.40;9.00;;;;;;;2.23;80.48;99674.16;79485;1295;3012690;-63
2023/12/10 08:17:39;;;;;;;16.60;8.80;;;;;;;2.10;80.53;99671.69;78280;1298;3051315;-63
2023/12/10 08:20:07;;;;;;;15.20;8.80;;;;;;;1.75;81.06;99670.91;79407;1295;3019821;-64
2023/12/10 08:22:34;;;;;;;16.50;8.90;;;;;;;1.61;81.81;99672.23;79556;1298;3011818;-62
2023/12/10 08:25:02;;;;;;;17.30;9.40;;;;;;;1.57;82.33;99675.61;78485;1295;3050013;-67
2023/12/10 08:27:30;;;;;;;17.60;9.80;;;;;;;1.47;82.61;99674.77;79579;1298;3016219;-62
2023/12/10 08:29:57;;;;;;;20.10;10.20;;;;;;;1.55;83.31;99671.66;79531;1294;3011945;-61
2023/12/10 08:32:27;;;;;;;23.00;10.70;;;;;;;1.55;82.84;99669.60;78200;1297;3052029;-62
2023/12/10 08:34:54;;;;;;;24.20;10.30;;;;;;;1.55;82.86;99667.16;79510;1298;3013101;-64
2023/12/10 08:37:23;;;;;;;18.20;7.80;;;;;;;1.52;83.09;99670.33;78946;1295;3011675;-63
2023/12/10 08:39:50;;;;;;;14.50;7.90;;;;;;;2.04;82.14;99661.80;79643;1295;3013543;-62
2023/12/10 08:42:17;;;;;;;15.30;7.50;;;;;;;2.71;79.42;99655.73;79414;1297;3011852;-61
2023/12/10 08:44:45;;;;;;;15.80;7.80;;;;;;;2.81;77.95;99653.91;78301;1295;3026358;-61
2023/12/10 08:47:12;;;;;;;16.70;8.30;;;;;;;2.58;77.75;99653.98;79461;1298;3013797;-62
2023/12/10 08:49:39;;;;;;;15.20;8.30;;;;;;;2.22;78.49;99651.22;79479;1295;3013203;-62
2023/12/10 08:52:07;;;;;;;16.90;8.80;;;;;;;2.12;79.07;99653.16;78277;1298;3029952;-62
2023/12/10 08:54:34;;;;;;;17.40;9.10;;;;;;;2.03;79.30;99652.34;79636;1295;3020837;-62
2023/12/10 08:57:00;;;;;;;16.40;9.00;;;;;;;1.79;79.80;99646.64;79488;1298;3012798;-61
2023/12/10 08:59:29;;;;;;;16.50;8.20;;;;;;;1.62;80.15;99653.06;78291;1297;3026886;-62
2023/12/10 09:01:55;;;;;;;17.80;9.70;;;;;;;1.54;80.83;99655.63;79707;1298;3020942;-62
2023/12/10 09:04:22;;;;;;;21.40;9.90;;;;;;;1.43;81.28;99654.13;79446;1298;3011719;-65
2023/12/10 09:06:51;;;;;;;20.70;9.80;;;;;;;1.30;81.98;99655.94;78484;1297;3026414;-62
2023/12/10 09:09:17;;;;;;;21.70;9.70;;;;;;;1.29;82.39;99655.63;79559;1295;3012926;-64
2023/12/10 09:11:46;;;;;;;17.30;8.70;;;;;;;1.22;82.66;99657.13;79447;1298;3012141;-60
2023/12/10 09:14:14;;;;;;;22.60;9.30;;;;;;;1.16;83.07;99654.13;78191;1298;3048778;-63
2023/12/10 09:16:41;;;;;;;18.30;9.50;;;;;;;1.06;83.22;99658.46;79605;1297;3013122;-64
2023/12/10 09:19:09;;;;;;;21.60;10.10;;;;;;;1.02;83.33;99658.70;79444;1295;3011567;-62
2023/12/10 09:21:37;;;;;;;12.40;7.30;;;;;;;0.99;83.91;99652.73;78557;1298;3050322;-63
2023/12/10 09:24:04;;;;;;;12.90;6.70;;;;;;;1.48;82.57;99653.15;79717;1298;3013460;-62
2023/12/10 09:26:31;;;;;;;15.30;8.00;;;;;;;2.18;80.29;99648.02;79558;1295;3013010;-62
2023/12/10 09:28:59;;;;;;;16.30;8.50;;;;;;;2.31;79.27;99650.13;78424;1295;3050384;-63
2023/12/10 09:31:27;;;;;;;15.70;7.00;;;;;;;2.16;79.03;99649.11;79549;1298;3013086;-65
2023/12/10 09:33:53;;;;;;;16.20;8.70;;;;;;;1.87;79.29;99651.31;79480;1295;3011490;-63
2023/12/10 09:36:22;;;;;;;14.30;8.30;;;;;;;1.75;80.15;99643.44;78411;1295;3052198;-63
2023/12/10 09:38:48;;;;;;;16.60;9.10;;;;;;;1.63;80.60;99648.36;79717;1295;3012597;-62
2023/12/10 09:41:15;;;;;;;18.30;9.30;;;;;;;1.53;81.15;99654.79;79477;1298;3013641;-62
2023/12/10 09:43:43;;;;;;;16.80;9.00;;;;;;;1.42;81.45;99652.59;78451;1298;3028333;-62
2023/12/10 09:46:10;;;;;;;19.50;9.30;;;;;;;1.24;82.14;99656.40;79593;1298;3013442;-63
2023/12/10 09:48:37;;;;;;;20.90;9.70;;;;;;;1.16;82.72;99651.04;79386;1294;3011644;-61
2023/12/10 09:51:05;;;;;;;18.80;10.30;;;;;;;1.22;82.72;99647.46;78269;1295;3028367;-61
2023/12/10 09:53:32;;;;;;;20.30;10.20;;;;;;;1.19;82.65;99646.47;79504;1294;3013190;-62
2023/12/10 09:55:59;;;;;;;23.10;10.10;;;;;;;1.12;82.91;99646.79;79433;1295;3013207;-62
2023/12/10 09:58:28;;;;;;;22.30;10.60;;;;;;;1.06;83.40;99652.08;78222;1298;3050354;-62
2023/12/10 10:00:55;;;;;;;20.70;8.90;;;;;;;1.02;83.76;99651.47;79535;1298;3013097;-62
2023/12/10 10:03:22;;;;;;;21.40;8.70;;;;;;;1.46;82.69;99653.19;79528;1295;3013798;-60
2023/12/10 10:05:50;;;;;;;22.00;8.70;;;;;;;2.01;80.39;99652.20;78339;1295;3051313;-62
2023/12/10 10:08:17;;;;;;;16.20;8.60;;;;;;;2.15;79.49;99648.43;79749;1297;3013051;-64
2023/12/10 10:10:43;;;;;;;14.10;7.90;;;;;;;2.11;79.24;99649.73;79487;1295;3011590;-63
2023/12/10 10:13:11;;;;;;;14.40;7.70;;;;;;;1.83;79.36;99649.31;78273;1294;3028099;-62
2023/12/10 10:15:38;;;;;;;17.50;8.90;;;;;;;1.62;80.20;99649.08;79728;1295;3013767;-63
2023/12/10 10:18:06;;;;;;;19.90;9.90;;;;;;;1.49;81.04;99654.02;79822;1294;3011612;-63
2023/12/10 10:20:34;;;;;;;19.60;9.90;;;;;;;1.57;81.45;99653.31;78176;1295;3050834;-64
2023/12/10 10:23:00;;;;;;;20.90;11.40;;;;;;;1.44;81.65;99653.59;79591;1297;3018774;-62
2023/12/10 10:25:27;;;;;;;21.00;11.60;;;;;;;1.34;82.06;99653.27;79526;1298;3011888;-66
2023/12/10 10:27:56;;;;;;;18.30;10.20;;;;;;;1.30;82.27;99649.90;78381;1295;3026053;-64
2023/12/10 10:30:23;;;;;;;19.20;10.20;;;;;;;1.21;82.36;99651.45;79720;1296;3013680;-63
2023/12/10 10:32:49;;;;;;;17.90;9.20;;;;;;;1.12;82.61;99653.88;79773;1298;3011397;-63
2023/12/10 10:35:18;;;;;;;18.30;9.40;;;;;;;0.97;82.99;99652.60;78394;1295;3028210;-63
2023/12/10 10:37:45;;;;;;;19.60;8.30;;;;;;;0.92;83.47;99653.38;79694;1295;3013474;-64
2023/12/10 10:40:12;;;;;;;21.50;9.70;;;;;;;0.97;83.28;99652.59;79576;1298;3013361;-60
2023/12/10 10:42:40;;;;;;;16.90;8.20;;;;;;;0.91;83.39;99651.16;78145;1297;3049211;-62
2023/12/10 10:45:07;;;;;;;15.10;7.60;;;;;;;1.41;82.23;99649.84;79515;1294;3020838;-63
2023/12/10 10:47:34;;;;;;;17.10;8.90;;;;;;;1.93;80.13;99651.33;79576;1298;3011709;-62
2023/12/10 10:50:03;;;;;;;20.00;8.90;;;;;;;1.89;79.25;99648.66;78373;1298;3052096;-61
2023/12/10 10:52:31;;;;;;;16.20;8.80;;;;;;;1.90;79.47;99649.86;79653;1295;3014038;-62
2023/12/10 10:54:58;;;;;;;15.80;8.70;;;;;;;1.78;79.71;99642.86;79500;1296;3011495;-64
2023/12/10 10:57:36;;;;;;;19.80;10.40;;;;;;;1.73;80.25;99642.63;78349;1298;3050060;-62
2023/12/10 11:00:34;;;;;;;17.00;8.80;;;;;;;1.47;80.60;99637.98;78362;1295;3053361;-60
2023/12/10 11:03:03;;;;;;;19.10;9.00;;;;;;;1.23;81.60;99639.85;78543;1295;3052359;-62
2023/12/10 11:05:32;;;;;;;15.00;7.90;;;;;;;1.11;81.94;99643.70;79620;1295;3013335;-62
2023/12/10 11:08:03;;;;;;;17.10;9.80;;;;;;;1.06;82.36;99639.15;79178;1294;3013132;-62
2023/12/10 11:10:30;;;;;;;23.30;9.80;;;;;;;0.87;83.02;99648.64;79470;1295;3013211;-64
2023/12/10 11:13:00;;;;;;;18.80;10.00;;;;;;;0.88;83.50;99647.08;79340;1295;3011881;-62
2023/12/10 11:15:28;;;;;;;23.70;12.70;;;;;;;0.87;83.35;99645.53;79582;1295;3013142;-60
2023/12/10 11:17:55;;;;;;;22.30;10.80;;;;;;;0.71;84.02;99641.68;79448;1298;3011515;-62
2023/12/10 11:20:39;;;;;;;30.10;14.00;;;;;;;0.56;84.51;99642.78;78302;1298;3051427;-61